sensor_id;sensor_type;location;lat;lon;timestamp;pressure;altitude;pressure_sealevel;temperature;humidity
40918;BME280;26644;50.248;19.032;2022-09-09T00:01:32;97825.97;;;15.86;90.93
40918;BME280;26644;50.248;19.032;2022-09-09T00:04:40;97817.66;;;15.86;91.02
40918;BME280;26644;50.248;19.032;2022-09-09T00:07:46;97828.75;;;15.86;91.01
40918;BME280;26644;50.248;19.032;2022-09-09T00:10:51;97826.97;;;15.82;90.97
40918;BME280;26644;50.248;19.032;2022-09-09T00:13:57;97824.38;;;15.76;90.91
40918;BME280;26644;50.248;19.032;2022-09-09T00:17:08;97826.97;;;15.73;91.27
40918;BME280;26644;50.248;19.032;2022-09-09T00:20:14;97824.88;;;15.70;91.01
40918;BME280;26644;50.248;19.032;2022-09-09T00:23:24;97815.91;;;15.64;91.55
40918;BME280;26644;50.248;19.032;2022-09-09T00:26:34;97827.31;;;15.63;92.02
40918;BME280;26644;50.248;19.032;2022-09-09T00:29:40;97821.78;;;15.63;91.91
40918;BME280;26644;50.248;19.032;2022-09-09T00:32:44;97819.97;;;15.49;91.71
40918;BME280;26644;50.248;19.032;2022-09-09T00:35:49;97832.53;;;15.55;92.02
40918;BME280;26644;50.248;19.032;2022-09-09T00:38:55;97811.50;;;15.45;91.77
40918;BME280;26644;50.248;19.032;2022-09-09T00:42:13;97825.72;;;15.53;91.85
40918;BME280;26644;50.248;19.032;2022-09-09T00:45:30;97827.16;;;15.50;91.98
40918;BME280;26644;50.248;19.032;2022-09-09T00:48:45;97825.34;;;15.45;92.16
40918;BME280;26644;50.248;19.032;2022-09-09T00:52:01;97839.16;;;15.45;92.18
40918;BME280;26644;50.248;19.032;2022-09-09T00:55:09;97840.34;;;15.44;92.04
40918;BME280;26644;50.248;19.032;2022-09-09T00:58:16;97836.91;;;15.30;92.10
40918;BME280;26644;50.248;19.032;2022-09-09T01:01:18;97847.50;;;15.37;92.08
40918;BME280;26644;50.248;19.032;2022-09-09T01:04:28;97846.19;;;15.34;92.20
40918;BME280;26644;50.248;19.032;2022-09-09T01:07:32;97850.91;;;15.34;94.46
40918;BME280;26644;50.248;19.032;2022-09-09T01:10:41;97863.44;;;15.31;92.57
40918;BME280;26644;50.248;19.032;2022-09-09T01:13:50;97856.44;;;15.25;92.29
40918;BME280;26644;50.248;19.032;2022-09-09T01:16:56;97865.69;;;15.20;92.45
40918;BME280;26644;50.248;19.032;2022-09-09T01:20:06;97869.09;;;15.17;92.62
40918;BME280;26644;50.248;19.032;2022-09-09T01:23:45;97867.00;;;15.14;92.95
40918;BME280;26644;50.248;19.032;2022-09-09T01:26:57;97874.00;;;15.11;95.03
40918;BME280;26644;50.248;19.032;2022-09-09T01:30:02;97861.59;;;15.00;93.69
40918;BME280;26644;50.248;19.032;2022-09-09T01:33:04;97777.16;;;14.50;93.03
40918;BME280;26644;50.248;19.032;2022-09-09T01:36:08;97843.38;;;14.90;93.12
40918;BME280;26644;50.248;19.032;2022-09-09T01:39:20;97874.94;;;15.07;93.25
40918;BME280;26644;50.248;19.032;2022-09-09T01:42:31;97868.63;;;15.06;93.02
40918;BME280;26644;50.248;19.032;2022-09-09T01:45:34;97853.59;;;14.90;92.90
40918;BME280;26644;50.248;19.032;2022-09-09T01:48:36;97871.19;;;15.03;92.92
40918;BME280;26644;50.248;19.032;2022-09-09T01:51:43;97877.38;;;15.00;92.71
40918;BME280;26644;50.248;19.032;2022-09-09T01:54:48;97885.16;;;14.98;92.53
40918;BME280;26644;50.248;19.032;2022-09-09T01:58:02;97879.16;;;14.96;92.75
40918;BME280;26644;50.248;19.032;2022-09-09T02:01:16;97848.38;;;14.71;92.70
40918;BME280;26644;50.248;19.032;2022-09-09T02:04:32;97867.59;;;14.85;92.11
40918;BME280;26644;50.248;19.032;2022-09-09T02:07:43;97877.81;;;14.84;92.19
40918;BME280;26644;50.248;19.032;2022-09-09T02:11:03;97880.13;;;14.82;92.17
40918;BME280;26644;50.248;19.032;2022-09-09T02:14:32;97880.41;;;14.81;94.57
40918;BME280;26644;50.248;19.032;2022-09-09T02:17:37;97887.91;;;14.80;92.90
40918;BME280;26644;50.248;19.032;2022-09-09T02:20:47;97797.19;;;14.24;92.82
40918;BME280;26644;50.248;19.032;2022-09-09T02:23:50;97893.09;;;14.82;92.47
40918;BME280;26644;50.248;19.032;2022-09-09T02:26:56;97886.25;;;14.79;92.52
40918;BME280;26644;50.248;19.032;2022-09-09T02:30:03;97889.53;;;14.81;92.22
40918;BME280;26644;50.248;19.032;2022-09-09T02:33:16;97900.78;;;14.85;92.34
40918;BME280;26644;50.248;19.032;2022-09-09T02:36:24;97900.25;;;14.83;91.74
40918;BME280;26644;50.248;19.032;2022-09-09T02:39:28;97904.16;;;14.82;91.82
40918;BME280;26644;50.248;19.032;2022-09-09T02:42:30;97907.75;;;14.82;92.35
40918;BME280;26644;50.248;19.032;2022-09-09T02:45:40;97910.19;;;14.84;92.41
40918;BME280;26644;50.248;19.032;2022-09-09T02:48:51;97917.66;;;14.83;93.01
40918;BME280;26644;50.248;19.032;2022-09-09T02:52:01;97923.81;;;14.80;93.37
40918;BME280;26644;50.248;19.032;2022-09-09T02:55:08;97913.91;;;14.79;93.12
40918;BME280;26644;50.248;19.032;2022-09-09T02:58:16;97896.13;;;14.63;93.04
40918;BME280;26644;50.248;19.032;2022-09-09T03:01:23;97922.84;;;14.76;93.13
40918;BME280;26644;50.248;19.032;2022-09-09T03:04:25;97923.47;;;14.73;92.77
40918;BME280;26644;50.248;19.032;2022-09-09T03:07:27;97903.91;;;14.52;92.85
40918;BME280;26644;50.248;19.032;2022-09-09T03:10:30;97928.44;;;14.62;92.77
40918;BME280;26644;50.248;19.032;2022-09-09T03:13:32;97927.78;;;14.56;92.99
40918;BME280;26644;50.248;19.032;2022-09-09T03:16:36;97927.91;;;14.51;93.07
40918;BME280;26644;50.248;19.032;2022-09-09T03:19:38;97934.75;;;14.45;93.26
40918;BME280;26644;50.248;19.032;2022-09-09T03:22:43;97939.53;;;14.39;93.21
40918;BME280;26644;50.248;19.032;2022-09-09T03:25:48;97907.13;;;14.22;93.40
40918;BME280;26644;50.248;19.032;2022-09-09T03:28:55;97914.59;;;14.22;93.55
40918;BME280;26644;50.248;19.032;2022-09-09T03:31:59;97924.00;;;14.21;93.51
40918;BME280;26644;50.248;19.032;2022-09-09T03:35:02;97941.88;;;14.23;93.79
40918;BME280;26644;50.248;19.032;2022-09-09T03:38:05;97914.81;;;14.03;94.29
40918;BME280;26644;50.248;19.032;2022-09-09T03:41:08;97947.03;;;14.16;94.41
40918;BME280;26644;50.248;19.032;2022-09-09T03:44:11;97943.28;;;14.12;94.40
40918;BME280;26644;50.248;19.032;2022-09-09T03:47:18;97937.25;;;14.10;94.53
40918;BME280;26644;50.248;19.032;2022-09-09T03:50:20;97943.09;;;14.08;94.73
40918;BME280;26644;50.248;19.032;2022-09-09T03:53:24;97944.72;;;14.09;94.74
40918;BME280;26644;50.248;19.032;2022-09-09T03:56:27;97941.97;;;14.09;94.54
40918;BME280;26644;50.248;19.032;2022-09-09T03:59:30;97928.72;;;13.98;94.69
40918;BME280;26644;50.248;19.032;2022-09-09T04:02:33;97935.50;;;13.91;94.47
40918;BME280;26644;50.248;19.032;2022-09-09T04:05:35;97949.56;;;14.04;94.95
40918;BME280;26644;50.248;19.032;2022-09-09T04:08:40;97950.19;;;14.01;94.89
40918;BME280;26644;50.248;19.032;2022-09-09T04:11:43;97956.53;;;14.01;95.08
40918;BME280;26644;50.248;19.032;2022-09-09T04:14:46;97949.38;;;14.00;95.09
40918;BME280;26644;50.248;19.032;2022-09-09T04:17:49;97954.88;;;14.00;94.98
40918;BME280;26644;50.248;19.032;2022-09-09T04:20:52;97955.00;;;13.95;94.96
40918;BME280;26644;50.248;19.032;2022-09-09T04:23:57;97939.66;;;13.80;95.10
40918;BME280;26644;50.248;19.032;2022-09-09T04:27:00;97965.06;;;13.91;95.30
40918;BME280;26644;50.248;19.032;2022-09-09T04:30:03;97961.97;;;13.92;95.39
40918;BME280;26644;50.248;19.032;2022-09-09T04:33:09;97950.38;;;13.82;95.31
40918;BME280;26644;50.248;19.032;2022-09-09T04:36:11;97963.94;;;13.92;95.55
40918;BME280;26644;50.248;19.032;2022-09-09T04:39:13;97963.63;;;13.93;95.32
40918;BME280;26644;50.248;19.032;2022-09-09T04:42:15;97964.09;;;13.95;95.17
40918;BME280;26644;50.248;19.032;2022-09-09T04:45:18;97967.38;;;13.98;95.42
40918;BME280;26644;50.248;19.032;2022-09-09T04:48:22;97972.88;;;13.98;95.23
40918;BME280;26644;50.248;19.032;2022-09-09T04:51:24;97954.00;;;13.91;95.10
40918;BME280;26644;50.248;19.032;2022-09-09T04:54:27;97979.41;;;14.02;95.30
40918;BME280;26644;50.248;19.032;2022-09-09T04:57:29;97978.28;;;14.03;95.41
40918;BME280;26644;50.248;19.032;2022-09-09T05:00:33;97981.53;;;14.05;95.21
40918;BME280;26644;50.248;19.032;2022-09-09T05:03:39;97982.38;;;14.05;95.21
40918;BME280;26644;50.248;19.032;2022-09-09T05:06:43;97982.53;;;14.09;95.04
40918;BME280;26644;50.248;19.032;2022-09-09T05:09:47;97981.41;;;14.10;95.15
40918;BME280;26644;50.248;19.032;2022-09-09T05:12:53;97981.94;;;14.12;95.03
40918;BME280;26644;50.248;19.032;2022-09-09T05:15:58;97986.81;;;14.15;95.56
40918;BME280;26644;50.248;19.032;2022-09-09T05:19:02;97988.13;;;14.18;95.36
40918;BME280;26644;50.248;19.032;2022-09-09T05:22:18;98000.69;;;14.24;95.37
40918;BME280;26644;50.248;19.032;2022-09-09T05:25:22;97976.28;;;14.17;95.51
40918;BME280;26644;50.248;19.032;2022-09-09T05:28:25;97997.97;;;14.33;95.27
40918;BME280;26644;50.248;19.032;2022-09-09T05:31:29;98004.19;;;14.38;95.38
40918;BME280;26644;50.248;19.032;2022-09-09T05:34:35;98004.41;;;14.42;95.67
40918;BME280;26644;50.248;19.032;2022-09-09T05:37:38;98000.50;;;14.43;95.51
40918;BME280;26644;50.248;19.032;2022-09-09T05:40:47;98000.69;;;14.47;95.42
40918;BME280;26644;50.248;19.032;2022-09-09T05:43:50;97994.53;;;14.50;95.77
40918;BME280;26644;50.248;19.032;2022-09-09T05:46:52;98002.03;;;14.58;95.78
40918;BME280;26644;50.248;19.032;2022-09-09T05:49:57;98000.00;;;14.64;95.69
40918;BME280;26644;50.248;19.032;2022-09-09T05:52:59;97981.09;;;14.57;95.86
40918;BME280;26644;50.248;19.032;2022-09-09T05:56:02;98000.72;;;14.78;95.80
40918;BME280;26644;50.248;19.032;2022-09-09T05:59:07;98000.25;;;14.85;95.91
40918;BME280;26644;50.248;19.032;2022-09-09T06:02:09;97990.00;;;14.85;96.27
40918;BME280;26644;50.248;19.032;2022-09-09T06:05:13;98010.25;;;15.03;96.09
40918;BME280;26644;50.248;19.032;2022-09-09T06:08:16;98010.25;;;15.12;96.11
40918;BME280;26644;50.248;19.032;2022-09-09T06:11:19;98014.38;;;15.23;95.81
40918;BME280;26644;50.248;19.032;2022-09-09T06:14:22;97986.72;;;15.23;96.20
40918;BME280;26644;50.248;19.032;2022-09-09T06:17:26;98007.78;;;15.51;96.28
40918;BME280;26644;50.248;19.032;2022-09-09T06:20:30;97993.97;;;15.59;96.26
40918;BME280;26644;50.248;19.032;2022-09-09T06:23:33;98012.88;;;16.01;96.10
40918;BME280;26644;50.248;19.032;2022-09-09T06:26:38;98010.78;;;16.24;95.17
40918;BME280;26644;50.248;19.032;2022-09-09T06:29:41;98011.72;;;16.55;94.89
40918;BME280;26644;50.248;19.032;2022-09-09T06:32:43;98013.41;;;16.94;94.31
40918;BME280;26644;50.248;19.032;2022-09-09T06:35:52;98019.72;;;17.42;92.58
40918;BME280;26644;50.248;19.032;2022-09-09T06:38:55;97992.56;;;17.57;90.89
40918;BME280;26644;50.248;19.032;2022-09-09T06:41:57;98024.59;;;18.18;90.56
40918;BME280;26644;50.248;19.032;2022-09-09T06:45:22;98029.19;;;18.35;89.04
40918;BME280;26644;50.248;19.032;2022-09-09T06:48:32;98007.66;;;18.65;89.81
40918;BME280;26644;50.248;19.032;2022-09-09T06:51:37;98030.97;;;19.31;89.67
40918;BME280;26644;50.248;19.032;2022-09-09T06:54:44;98025.94;;;19.86;88.17
40918;BME280;26644;50.248;19.032;2022-09-09T06:57:47;98028.75;;;20.55;86.63
40918;BME280;26644;50.248;19.032;2022-09-09T07:01:02;98033.69;;;21.22;85.14
40918;BME280;26644;50.248;19.032;2022-09-09T07:04:05;98029.31;;;21.73;82.72
40918;BME280;26644;50.248;19.032;2022-09-09T07:07:11;98037.94;;;22.19;81.24
40918;BME280;26644;50.248;19.032;2022-09-09T07:10:16;98035.41;;;22.50;78.65
40918;BME280;26644;50.248;19.032;2022-09-09T07:13:19;98038.84;;;22.43;77.34
40918;BME280;26644;50.248;19.032;2022-09-09T07:16:26;98037.09;;;22.54;76.12
40918;BME280;26644;50.248;19.032;2022-09-09T07:19:31;98031.44;;;22.51;74.85
40918;BME280;26644;50.248;19.032;2022-09-09T07:22:37;98031.66;;;22.42;75.15
40918;BME280;26644;50.248;19.032;2022-09-09T07:25:44;98034.81;;;22.60;75.24
40918;BME280;26644;50.248;19.032;2022-09-09T07:28:46;98034.50;;;22.85;74.01
40918;BME280;26644;50.248;19.032;2022-09-09T07:31:49;98015.66;;;23.05;71.50
40918;BME280;26644;50.248;19.032;2022-09-09T07:34:58;98024.09;;;23.55;69.79
40918;BME280;26644;50.248;19.032;2022-09-09T07:38:03;98008.47;;;23.81;68.97
40918;BME280;26644;50.248;19.032;2022-09-09T07:41:08;98029.53;;;24.58;67.73
40918;BME280;26644;50.248;19.032;2022-09-09T07:44:14;98015.84;;;24.87;67.12
40918;BME280;26644;50.248;19.032;2022-09-09T07:47:18;98040.00;;;25.40;66.92
40918;BME280;26644;50.248;19.032;2022-09-09T07:50:23;98046.06;;;25.98;65.32
40918;BME280;26644;50.248;19.032;2022-09-09T07:53:27;98051.91;;;26.45;64.26
40918;BME280;26644;50.248;19.032;2022-09-09T07:56:30;98013.75;;;26.55;61.69
40918;BME280;26644;50.248;19.032;2022-09-09T07:59:32;98067.47;;;27.27;61.44
40918;BME280;26644;50.248;19.032;2022-09-09T08:02:34;98064.28;;;27.39;60.58
40918;BME280;26644;50.248;19.032;2022-09-09T08:05:36;98061.84;;;27.85;59.59
40918;BME280;26644;50.248;19.032;2022-09-09T08:08:41;98065.00;;;28.23;59.14
40918;BME280;26644;50.248;19.032;2022-09-09T08:11:44;98069.66;;;28.77;57.31
40918;BME280;26644;50.248;19.032;2022-09-09T08:14:46;98076.91;;;28.78;57.10
40918;BME280;26644;50.248;19.032;2022-09-09T08:17:50;98073.75;;;28.68;55.95
40918;BME280;26644;50.248;19.032;2022-09-09T08:20:52;98075.03;;;28.42;55.98
40918;BME280;26644;50.248;19.032;2022-09-09T08:23:56;98079.44;;;28.50;55.01
40918;BME280;26644;50.248;19.032;2022-09-09T08:26:59;98083.97;;;28.12;54.95
40918;BME280;26644;50.248;19.032;2022-09-09T08:30:03;98057.84;;;27.35;55.47
40918;BME280;26644;50.248;19.032;2022-09-09T08:33:05;98070.25;;;27.16;54.70
40918;BME280;26644;50.248;19.032;2022-09-09T08:36:10;98068.63;;;27.08;53.47
40918;BME280;26644;50.248;19.032;2022-09-09T08:39:15;98071.41;;;26.90;53.77
40918;BME280;26644;50.248;19.032;2022-09-09T08:42:30;98073.81;;;26.88;52.80
40918;BME280;26644;50.248;19.032;2022-09-09T08:45:42;98067.78;;;26.86;53.91
40918;BME280;26644;50.248;19.032;2022-09-09T08:48:56;98077.06;;;27.01;52.74
40918;BME280;26644;50.248;19.032;2022-09-09T08:51:59;98075.03;;;26.94;52.80
40918;BME280;26644;50.248;19.032;2022-09-09T08:55:16;98069.75;;;26.71;52.21
40918;BME280;26644;50.248;19.032;2022-09-09T08:58:25;98052.66;;;26.31;54.02
40918;BME280;26644;50.248;19.032;2022-09-09T09:01:42;98079.31;;;26.52;52.70
40918;BME280;26644;50.248;19.032;2022-09-09T09:05:00;98060.88;;;26.62;52.10
40918;BME280;26644;50.248;19.032;2022-09-09T09:08:12;98069.16;;;26.33;51.89
40918;BME280;26644;50.248;19.032;2022-09-09T09:11:19;98073.28;;;25.90;52.37
40918;BME280;26644;50.248;19.032;2022-09-09T09:14:22;98070.50;;;25.38;52.49
40918;BME280;26644;50.248;19.032;2022-09-09T09:17:27;98073.72;;;25.03;53.74
40918;BME280;26644;50.248;19.032;2022-09-09T09:20:37;98065.88;;;25.19;54.04
40918;BME280;26644;50.248;19.032;2022-09-09T09:23:46;98070.56;;;25.98;54.73
40918;BME280;26644;50.248;19.032;2022-09-09T09:26:54;98059.44;;;27.33;52.72
40918;BME280;26644;50.248;19.032;2022-09-09T09:29:56;98072.66;;;28.26;49.87
40918;BME280;26644;50.248;19.032;2022-09-09T09:33:01;98073.31;;;28.74;47.45
40918;BME280;26644;50.248;19.032;2022-09-09T09:36:05;98075.97;;;29.10;45.70
40918;BME280;26644;50.248;19.032;2022-09-09T09:39:09;98062.38;;;28.79;45.41
40918;BME280;26644;50.248;19.032;2022-09-09T09:42:17;98073.44;;;28.27;45.05
40918;BME280;26644;50.248;19.032;2022-09-09T09:45:28;98063.47;;;27.68;46.46
40918;BME280;26644;50.248;19.032;2022-09-09T09:48:32;98073.91;;;27.82;47.20
40918;BME280;26644;50.248;19.032;2022-09-09T09:51:34;98067.47;;;27.85;46.43
40918;BME280;26644;50.248;19.032;2022-09-09T09:54:39;98059.00;;;27.85;45.94
40918;BME280;26644;50.248;19.032;2022-09-09T09:57:44;98062.25;;;27.94;46.23
40918;BME280;26644;50.248;19.032;2022-09-09T10:00:48;98077.16;;;27.37;45.34
40918;BME280;26644;50.248;19.032;2022-09-09T10:03:53;98058.84;;;26.62;46.27
40918;BME280;26644;50.248;19.032;2022-09-09T10:06:55;98069.13;;;26.26;47.18
40918;BME280;26644;50.248;19.032;2022-09-09T10:09:57;98064.22;;;26.08;47.66
40918;BME280;26644;50.248;19.032;2022-09-09T10:13:05;98056.44;;;25.94;47.29
40918;BME280;26644;50.248;19.032;2022-09-09T10:16:20;98053.78;;;25.56;46.93
40918;BME280;26644;50.248;19.032;2022-09-09T10:19:30;98069.09;;;25.21;47.22
40918;BME280;26644;50.248;19.032;2022-09-09T10:22:33;98051.50;;;24.53;47.62
40918;BME280;26644;50.248;19.032;2022-09-09T10:25:44;98062.31;;;24.20;48.27
40918;BME280;26644;50.248;19.032;2022-09-09T10:29:09;98068.56;;;24.10;48.65
40918;BME280;26644;50.248;19.032;2022-09-09T10:32:36;98075.75;;;24.07;49.41
40918;BME280;26644;50.248;19.032;2022-09-09T10:35:43;98078.94;;;24.06;49.57
40918;BME280;26644;50.248;19.032;2022-09-09T10:38:53;98084.94;;;24.04;49.91
40918;BME280;26644;50.248;19.032;2022-09-09T10:42:04;98087.06;;;23.88;49.88
40918;BME280;26644;50.248;19.032;2022-09-09T10:45:17;98085.22;;;23.72;50.40
40918;BME280;26644;50.248;19.032;2022-09-09T10:48:45;98085.16;;;23.69;51.21
40918;BME280;26644;50.248;19.032;2022-09-09T10:51:56;98079.22;;;23.74;51.10
40918;BME280;26644;50.248;19.032;2022-09-09T10:55:09;98086.84;;;23.73;50.73
40918;BME280;26644;50.248;19.032;2022-09-09T10:58:16;98072.31;;;23.68;50.68
40918;BME280;26644;50.248;19.032;2022-09-09T11:01:24;98081.09;;;23.66;50.85
40918;BME280;26644;50.248;19.032;2022-09-09T11:04:30;98076.97;;;23.56;50.92
40918;BME280;26644;50.248;19.032;2022-09-09T11:07:42;98049.59;;;23.23;50.05
40918;BME280;26644;50.248;19.032;2022-09-09T11:10:51;98063.34;;;23.12;50.34
40918;BME280;26644;50.248;19.032;2022-09-09T11:14:00;98073.06;;;22.95;50.17
40918;BME280;26644;50.248;19.032;2022-09-09T11:17:10;98075.31;;;22.66;51.08
40918;BME280;26644;50.248;19.032;2022-09-09T11:20:13;98079.06;;;22.54;51.53
40918;BME280;26644;50.248;19.032;2022-09-09T11:23:18;98084.22;;;22.52;51.23
40918;BME280;26644;50.248;19.032;2022-09-09T11:26:29;98081.63;;;22.44;49.68
40918;BME280;26644;50.248;19.032;2022-09-09T11:29:50;98077.47;;;22.37;50.07
40918;BME280;26644;50.248;19.032;2022-09-09T11:33:27;98079.84;;;22.35;50.42
40918;BME280;26644;50.248;19.032;2022-09-09T11:36:49;98083.59;;;22.23;50.32
40918;BME280;26644;50.248;19.032;2022-09-09T11:40:14;98082.03;;;22.06;51.03
40918;BME280;26644;50.248;19.032;2022-09-09T11:43:22;98072.47;;;22.07;51.54
40918;BME280;26644;50.248;19.032;2022-09-09T11:46:33;98082.38;;;22.05;51.61
40918;BME280;26644;50.248;19.032;2022-09-09T11:49:42;98057.28;;;21.89;51.63
40918;BME280;26644;50.248;19.032;2022-09-09T11:52:45;98072.19;;;21.97;50.90
40918;BME280;26644;50.248;19.032;2022-09-09T11:55:47;98072.47;;;21.91;49.97
40918;BME280;26644;50.248;19.032;2022-09-09T11:58:55;98061.59;;;21.86;49.90
40918;BME280;26644;50.248;19.032;2022-09-09T12:01:59;98059.81;;;21.78;50.00
40918;BME280;26644;50.248;19.032;2022-09-09T12:05:06;98064.41;;;21.70;50.10
40918;BME280;26644;50.248;19.032;2022-09-09T12:08:09;98074.88;;;21.73;50.63
40918;BME280;26644;50.248;19.032;2022-09-09T12:11:23;98080.88;;;21.75;50.59
40918;BME280;26644;50.248;19.032;2022-09-09T12:14:36;98056.31;;;21.65;49.81
40918;BME280;26644;50.248;19.032;2022-09-09T12:17:42;98068.63;;;21.64;49.96
40918;BME280;26644;50.248;19.032;2022-09-09T12:20:54;98068.28;;;21.66;50.45
40918;BME280;26644;50.248;19.032;2022-09-09T12:24:01;98068.78;;;21.71;51.15
40918;BME280;26644;50.248;19.032;2022-09-09T12:27:12;98070.19;;;21.78;50.97
40918;BME280;26644;50.248;19.032;2022-09-09T12:30:17;98062.25;;;21.80;50.99
40918;BME280;26644;50.248;19.032;2022-09-09T12:33:20;98080.44;;;21.89;51.00
40918;BME280;26644;50.248;19.032;2022-09-09T12:36:29;98080.81;;;21.88;51.27
40918;BME280;26644;50.248;19.032;2022-09-09T12:39:34;98055.03;;;21.79;51.43
40918;BME280;26644;50.248;19.032;2022-09-09T12:42:40;98067.63;;;21.88;51.68
40918;BME280;26644;50.248;19.032;2022-09-09T12:45:42;98074.03;;;21.89;51.65
40918;BME280;26644;50.248;19.032;2022-09-09T12:48:44;98078.91;;;21.92;51.62
40918;BME280;26644;50.248;19.032;2022-09-09T12:51:48;98077.03;;;21.80;51.51
40918;BME280;26644;50.248;19.032;2022-09-09T12:54:50;98065.22;;;21.71;51.51
40918;BME280;26644;50.248;19.032;2022-09-09T12:57:54;98064.59;;;21.62;51.42
40918;BME280;26644;50.248;19.032;2022-09-09T13:00:56;98069.63;;;21.72;51.65
40918;BME280;26644;50.248;19.032;2022-09-09T13:03:59;98058.25;;;21.65;51.52
40918;BME280;26644;50.248;19.032;2022-09-09T13:07:07;98063.22;;;21.71;51.68
40918;BME280;26644;50.248;19.032;2022-09-09T13:10:13;98065.84;;;21.64;51.73
40918;BME280;26644;50.248;19.032;2022-09-09T13:13:20;98046.19;;;21.61;51.98
40918;BME280;26644;50.248;19.032;2022-09-09T13:16:29;98059.25;;;21.72;52.21
40918;BME280;26644;50.248;19.032;2022-09-09T13:19:34;98032.31;;;21.64;52.16
40918;BME280;26644;50.248;19.032;2022-09-09T13:22:38;98054.22;;;21.78;52.38
40918;BME280;26644;50.248;19.032;2022-09-09T13:25:41;98048.91;;;21.89;52.35
40918;BME280;26644;50.248;19.032;2022-09-09T13:28:54;98036.81;;;21.85;52.21
40918;BME280;26644;50.248;19.032;2022-09-09T13:32:04;98042.34;;;22.01;51.86
40918;BME280;26644;50.248;19.032;2022-09-09T13:35:22;98043.16;;;22.01;51.37
40918;BME280;26644;50.248;19.032;2022-09-09T13:38:28;98039.63;;;22.04;51.61
40918;BME280;26644;50.248;19.032;2022-09-09T13:41:32;98033.63;;;22.02;51.63
40918;BME280;26644;50.248;19.032;2022-09-09T13:44:37;98034.59;;;21.94;51.63
40918;BME280;26644;50.248;19.032;2022-09-09T13:47:42;98037.88;;;21.96;51.64
40918;BME280;26644;50.248;19.032;2022-09-09T13:50:53;98031.03;;;21.94;51.23
40918;BME280;26644;50.248;19.032;2022-09-09T13:53:57;98019.56;;;21.99;51.87
40918;BME280;26644;50.248;19.032;2022-09-09T13:57:01;98020.06;;;22.04;51.91
40918;BME280;26644;50.248;19.032;2022-09-09T14:00:03;98019.78;;;22.09;51.73
40918;BME280;26644;50.248;19.032;2022-09-09T14:03:06;98013.63;;;22.20;51.99
40918;BME280;26644;50.248;19.032;2022-09-09T14:06:09;98018.03;;;22.21;51.97
40918;BME280;26644;50.248;19.032;2022-09-09T14:09:14;98007.56;;;22.18;51.72
40918;BME280;26644;50.248;19.032;2022-09-09T14:12:16;98017.16;;;22.17;51.71
40918;BME280;26644;50.248;19.032;2022-09-09T14:15:18;98000.97;;;22.06;51.73
40918;BME280;26644;50.248;19.032;2022-09-09T14:18:20;98006.19;;;22.08;51.62
40918;BME280;26644;50.248;19.032;2022-09-09T14:21:24;98000.00;;;21.99;51.44
40918;BME280;26644;50.248;19.032;2022-09-09T14:24:27;98008.66;;;21.94;51.71
40918;BME280;26644;50.248;19.032;2022-09-09T14:27:29;97990.22;;;21.89;51.76
40918;BME280;26644;50.248;19.032;2022-09-09T14:30:31;98006.31;;;21.96;52.00
40918;BME280;26644;50.248;19.032;2022-09-09T14:33:33;98004.63;;;21.91;51.69
40918;BME280;26644;50.248;19.032;2022-09-09T14:36:37;97987.53;;;21.77;51.96
40918;BME280;26644;50.248;19.032;2022-09-09T14:39:40;97990.50;;;21.84;52.12
40918;BME280;26644;50.248;19.032;2022-09-09T14:42:44;97997.03;;;21.91;51.97
40918;BME280;26644;50.248;19.032;2022-09-09T14:45:46;98001.53;;;21.96;51.66
40918;BME280;26644;50.248;19.032;2022-09-09T14:48:48;97994.78;;;21.97;51.84
40918;BME280;26644;50.248;19.032;2022-09-09T14:51:50;98000.66;;;21.92;51.81
40918;BME280;26644;50.248;19.032;2022-09-09T14:54:53;97996.38;;;21.79;51.73
40918;BME280;26644;50.248;19.032;2022-09-09T14:57:55;97989.78;;;21.71;51.60
40918;BME280;26644;50.248;19.032;2022-09-09T15:01:02;97988.06;;;21.66;51.52
40918;BME280;26644;50.248;19.032;2022-09-09T15:04:05;97995.19;;;21.64;51.58
40918;BME280;26644;50.248;19.032;2022-09-09T15:07:08;97986.13;;;21.51;51.72
40918;BME280;26644;50.248;19.032;2022-09-09T15:10:12;97988.56;;;21.52;51.68
40918;BME280;26644;50.248;19.032;2022-09-09T15:13:14;97986.41;;;21.46;51.51
40918;BME280;26644;50.248;19.032;2022-09-09T15:16:19;97984.25;;;21.39;51.78
40918;BME280;26644;50.248;19.032;2022-09-09T15:19:21;97992.44;;;21.32;51.95
40918;BME280;26644;50.248;19.032;2022-09-09T15:22:23;97991.41;;;21.20;52.08
40918;BME280;26644;50.248;19.032;2022-09-09T15:25:26;97990.31;;;21.09;51.75
40918;BME280;26644;50.248;19.032;2022-09-09T15:28:28;98004.47;;;21.00;51.79
40918;BME280;26644;50.248;19.032;2022-09-09T15:31:31;97979.47;;;20.75;51.99
40918;BME280;26644;50.248;19.032;2022-09-09T15:34:33;97993.06;;;20.77;52.10
40918;BME280;26644;50.248;19.032;2022-09-09T15:37:34;97968.19;;;20.56;51.94
40918;BME280;26644;50.248;19.032;2022-09-09T15:40:38;97981.44;;;20.59;51.97
40918;BME280;26644;50.248;19.032;2022-09-09T15:43:43;97992.50;;;20.55;52.19
40918;BME280;26644;50.248;19.032;2022-09-09T15:46:49;97990.44;;;20.52;52.34
40918;BME280;26644;50.248;19.032;2022-09-09T15:49:51;97988.84;;;20.39;52.76
40918;BME280;26644;50.248;19.032;2022-09-09T15:52:53;97986.25;;;20.18;52.72
40918;BME280;26644;50.248;19.032;2022-09-09T15:55:56;97938.81;;;19.73;53.12
40918;BME280;26644;50.248;19.032;2022-09-09T15:58:59;97991.75;;;20.02;53.14
40918;BME280;26644;50.248;19.032;2022-09-09T16:02:02;97995.97;;;19.96;53.12
40918;BME280;26644;50.248;19.032;2022-09-09T16:05:04;97991.34;;;19.87;53.27
40918;BME280;26644;50.248;19.032;2022-09-09T16:08:06;97989.50;;;19.79;53.34
40918;BME280;26644;50.248;19.032;2022-09-09T16:11:12;97982.09;;;19.71;53.68
40918;BME280;26644;50.248;19.032;2022-09-09T16:14:15;97981.53;;;19.65;53.63